Time;durP1;ratioP1;P1;durP2;ratioP2;P2;SDS_P1;SDS_P2;PMS_P1;PMS_P2;Temp;Humidity;BMP_temperature;BMP_pressure;BME280_temperature;BME280_humidity;BME280_pressure;Samples;Min_cycle;Max_cycle;Signal;HPM_P1;HPM_P2
2023/01/08 00:02:09;;;;;;;4.70;0.83;;;9.50;99.90;;;;;;4949885;28;20192;-83
2023/01/08 00:04:35;;;;;;;0.67;0.67;;;9.60;99.90;;;;;;4956249;28;20263;-86
2023/01/08 00:07:01;;;;;;;1.03;1.00;;;9.60;99.90;;;;;;4948290;28;20681;-89
2023/01/08 00:09:27;;;;;;;1.10;0.83;;;9.60;99.90;;;;;;4956634;28;20414;-83
2023/01/08 00:11:52;;;;;;;1.93;1.83;;;9.60;99.90;;;;;;4956421;28;20239;-82
2023/01/08 00:14:18;;;;;;;1.20;1.20;;;9.70;99.90;;;;;;4954491;28;20218;-84
2023/01/08 00:16:44;;;;;;;2.63;1.70;;;9.70;99.90;;;;;;4951605;28;20717;-86
2023/01/08 00:19:11;;;;;;;11.93;2.33;;;9.90;99.90;;;;;;4956372;28;20227;-84
2023/01/08 00:21:37;;;;;;;1.97;1.87;;;9.90;99.90;;;;;;4956206;28;20589;-83
2023/01/08 00:24:03;;;;;;;3.20;1.77;;;9.90;99.90;;;;;;4957303;28;20213;-84
2023/01/08 00:26:30;;;;;;;1.80;1.70;;;9.80;99.90;;;;;;4954728;28;20292;-86
2023/01/08 00:28:55;;;;;;;2.00;1.83;;;9.80;99.90;;;;;;4959102;28;20445;-87
2023/01/08 00:31:21;;;;;;;1.63;1.40;;;9.80;99.90;;;;;;4951827;28;20267;-85
2023/01/08 00:33:47;;;;;;;1.10;1.00;;;9.80;99.90;;;;;;4959406;28;20323;-85
2023/01/08 00:36:16;;;;;;;2.17;1.73;;;9.80;99.90;;;;;;4946232;28;20237;-85
2023/01/08 00:38:42;;;;;;;2.57;2.10;;;9.80;99.90;;;;;;4954882;28;20199;-88
2023/01/08 00:41:08;;;;;;;1.37;1.27;;;9.90;99.90;;;;;;4956491;28;20196;-86
2023/01/08 00:43:34;;;;;;;2.90;1.33;;;9.90;99.90;;;;;;4958605;28;20548;-84
2023/01/08 00:46:00;;;;;;;4.27;1.83;;;9.90;99.90;;;;;;4956589;28;20220;-84
2023/01/08 00:48:26;;;;;;;1.53;1.43;;;9.90;99.90;;;;;;4950789;28;20232;-86
2023/01/08 00:50:53;;;;;;;2.47;1.37;;;9.90;99.90;;;;;;4955873;28;20251;-84
2023/01/08 00:53:20;;;;;;;2.30;1.70;;;9.90;99.90;;;;;;4951462;28;20194;-85
2023/01/08 00:55:45;;;;;;;0.80;0.80;;;9.90;99.90;;;;;;4957593;28;20232;-85
2023/01/08 00:58:12;;;;;;;1.07;1.07;;;9.80;99.90;;;;;;4940083;28;20228;-86
2023/01/08 01:00:38;;;;;;;0.40;0.40;;;9.80;99.90;;;;;;4954121;28;20220;-86
2023/01/08 01:03:04;;;;;;;2.23;1.63;;;9.80;99.90;;;;;;4955293;28;20228;-87
2023/01/08 01:05:30;;;;;;;2.50;1.63;;;9.70;99.90;;;;;;4951723;28;20206;-86
2023/01/08 01:07:56;;;;;;;1.40;1.30;;;9.70;99.90;;;;;;4952152;28;20337;-85
2023/01/08 01:10:22;;;;;;;1.50;1.13;;;9.60;99.90;;;;;;4959205;28;20315;-90
2023/01/08 01:12:49;;;;;;;0.60;0.60;;;9.60;99.90;;;;;;4953953;28;20276;-82
2023/01/08 01:15:16;;;;;;;0.63;0.63;;;9.50;99.90;;;;;;4955401;28;20736;-89
2023/01/08 01:17:44;;;;;;;2.27;1.90;;;9.50;99.90;;;;;;4956101;28;20201;-91
2023/01/08 01:20:14;;;;;;;2.23;1.40;;;9.50;99.90;;;;;;4956090;28;20181;-89
2023/01/08 01:22:40;;;;;;;1.97;1.77;;;9.40;99.90;;;;;;4956156;28;20225;-85
2023/01/08 01:25:06;;;;;;;1.20;1.00;;;9.40;99.90;;;;;;4955335;28;20299;-87
2023/01/08 01:27:32;;;;;;;1.37;0.73;;;9.30;99.90;;;;;;4955200;28;20265;-86
2023/01/08 01:29:58;;;;;;;1.43;1.27;;;9.30;99.90;;;;;;4945329;28;20241;-87
2023/01/08 01:32:23;;;;;;;1.10;1.00;;;9.20;99.90;;;;;;4945682;28;20446;-87
2023/01/08 01:34:49;;;;;;;0.53;0.53;;;9.20;99.90;;;;;;4952468;28;20224;-82
2023/01/08 01:37:15;;;;;;;3.00;1.70;;;9.10;99.90;;;;;;4955524;28;20240;-85
2023/01/08 01:39:45;;;;;;;6.93;1.93;;;9.10;99.90;;;;;;4954826;28;20731;-90
2023/01/08 01:44:57;;;;;;;1.73;1.00;;;9.00;99.90;;;;;;4956697;28;20240;-84
2023/01/08 01:47:35;;;;;;;1.03;0.80;;;9.00;99.90;;;;;;4961363;28;20758;-83
2023/01/08 01:50:01;;;;;;;0.87;0.83;;;8.90;99.90;;;;;;4955853;28;20212;-89
2023/01/08 01:52:29;;;;;;;1.43;1.20;;;8.90;99.90;;;;;;4958541;28;20225;-87
2023/01/08 01:54:56;;;;;;;0.87;0.87;;;8.80;99.90;;;;;;4962961;28;20239;-86
2023/01/08 01:57:23;;;;;;;1.30;0.47;;;8.80;99.90;;;;;;4945511;28;20312;-85
2023/01/08 01:59:50;;;;;;;0.30;0.30;;;8.80;99.90;;;;;;4953943;28;20673;-86
2023/01/08 02:02:15;;;;;;;1.20;1.10;;;8.80;99.90;;;;;;4954613;28;20197;-89
2023/01/08 02:04:41;;;;;;;3.50;0.77;;;8.70;99.90;;;;;;4953768;28;20232;-86
2023/01/08 02:07:48;;;;;;;6.23;1.50;;;8.70;99.90;;;;;;4956008;28;20249;-88
2023/01/08 02:10:40;;;;;;;2.87;1.57;;;8.60;99.90;;;;;;4947252;28;20223;-86
2023/01/08 02:13:16;;;;;;;0.80;0.70;;;8.60;99.90;;;;;;4967361;28;20775;-89
2023/01/08 02:16:10;;;;;;;0.43;0.43;;;8.60;99.90;;;;;;4951596;28;20267;-85
2023/01/08 02:18:49;;;;;;;1.67;0.83;;;8.50;99.90;;;;;;4953646;28;20280;-83
2023/01/08 02:21:58;;;;;;;0.30;0.30;;;8.60;99.90;;;;;;4952290;28;20753;-89
2023/01/08 02:24:40;;;;;;;5.00;1.10;;;8.50;99.90;;;;;;4954450;28;20228;-86
2023/01/08 02:27:08;;;;;;;9.20;0.87;;;8.50;99.90;;;;;;4955694;28;20743;-86
2023/01/08 02:29:34;;;;;;;2.87;0.97;;;8.50;99.90;;;;;;4951784;28;20204;-85
2023/01/08 02:32:01;;;;;;;0.70;0.70;;;8.50;99.90;;;;;;4955949;28;20671;-85
2023/01/08 02:34:27;;;;;;;0.70;0.70;;;8.50;99.90;;;;;;4954461;28;20236;-85
2023/01/08 02:36:54;;;;;;;0.70;0.70;;;8.40;99.90;;;;;;4951585;28;20229;-88
2023/01/08 02:39:59;;;;;;;0.50;0.50;;;8.50;99.90;;;;;;4952547;28;20255;-85
2023/01/08 02:42:34;;;;;;;0.90;0.90;;;8.50;99.90;;;;;;4952855;28;20227;-83
2023/01/08 02:45:23;;;;;;;0.63;0.63;;;8.50;99.90;;;;;;4957513;28;20760;-84
2023/01/08 02:48:14;;;;;;;3.30;2.33;;;8.50;99.90;;;;;;4955335;28;20736;-83
2023/01/08 02:50:43;;;;;;;0.40;0.40;;;8.50;99.90;;;;;;4925542;28;20194;-84
2023/01/08 02:53:16;;;;;;;13.23;2.53;;;8.50;99.90;;;;;;4959056;28;20197;-84
2023/01/08 02:55:47;;;;;;;0.47;0.47;;;8.50;99.90;;;;;;4951234;28;20229;-86
2023/01/08 02:58:14;;;;;;;0.37;0.37;;;8.50;99.90;;;;;;4950428;28;20695;-85
2023/01/08 03:00:42;;;;;;;9.87;0.60;;;8.50;99.90;;;;;;4946342;28;20276;-89
2023/01/08 03:03:10;;;;;;;18.30;1.87;;;8.50;99.90;;;;;;4952993;28;20268;-84
2023/01/08 03:05:39;;;;;;;1.07;1.07;;;8.40;99.90;;;;;;4951178;28;20268;-85
2023/01/08 03:08:05;;;;;;;1.13;0.57;;;8.40;99.90;;;;;;4951382;28;20219;-88
2023/01/08 03:10:31;;;;;;;0.47;0.47;;;8.40;99.90;;;;;;4950470;28;20296;-88
2023/01/08 03:13:08;;;;;;;0.77;0.77;;;8.40;99.90;;;;;;4955319;28;20283;-85
2023/01/08 03:15:39;;;;;;;0.40;0.40;;;8.40;99.90;;;;;;4954423;28;20320;-85
2023/01/08 03:18:11;;;;;;;0.63;0.63;;;8.40;99.90;;;;;;4951924;28;20224;-85
2023/01/08 03:20:37;;;;;;;0.67;0.67;;;8.30;99.90;;;;;;4953019;28;20195;-87
2023/01/08 03:23:07;;;;;;;5.47;0.60;;;8.30;99.90;;;;;;4957823;28;20190;-89
2023/01/08 03:25:33;;;;;;;1.33;1.23;;;8.30;99.90;;;;;;4956823;28;20236;-88
2023/01/08 03:28:04;;;;;;;0.27;0.27;;;8.30;99.90;;;;;;4957935;28;20234;-92
2023/01/08 03:30:31;;;;;;;1.37;1.33;;;8.30;99.90;;;;;;4973684;28;20229;-85
2023/01/08 03:33:00;;;;;;;0.20;0.20;;;8.30;99.90;;;;;;4956129;28;20232;-85
2023/01/08 03:35:28;;;;;;;7.93;0.47;;;8.30;99.90;;;;;;4958960;28;20677;-86
2023/01/08 03:38:01;;;;;;;0.83;0.60;;;8.30;99.90;;;;;;4958071;28;20252;-84
2023/01/08 03:40:33;;;;;;;2.03;1.37;;;8.40;99.90;;;;;;4957907;28;20229;-92
2023/01/08 03:42:59;;;;;;;1.33;0.97;;;8.40;99.90;;;;;;4956321;28;20218;-86
2023/01/08 03:45:28;;;;;;;17.00;1.07;;;8.30;99.90;;;;;;4955758;28;20681;-91
2023/01/08 03:47:56;;;;;;;0.40;0.40;;;8.40;99.90;;;;;;4953432;28;20231;-84
2023/01/08 03:50:25;;;;;;;1.00;0.97;;;8.30;99.90;;;;;;4953916;28;20643;-84
2023/01/08 03:52:54;;;;;;;2.13;0.83;;;8.30;99.90;;;;;;4957767;28;20714;-85
2023/01/08 03:55:20;;;;;;;0.50;0.50;;;8.30;99.90;;;;;;4956754;28;20235;-84
2023/01/08 03:57:45;;;;;;;0.20;0.20;;;8.30;99.90;;;;;;4952710;28;20225;-88
2023/01/08 04:00:12;;;;;;;1.00;1.00;;;8.40;99.90;;;;;;4955823;28;20221;-90
2023/01/08 04:02:38;;;;;;;0.80;0.80;;;8.40;99.90;;;;;;4940097;28;20193;-84
2023/01/08 04:05:04;;;;;;;2.57;0.60;;;8.40;99.90;;;;;;4958014;28;20236;-91
2023/01/08 04:07:29;;;;;;;0.80;0.80;;;8.50;99.90;;;;;;4947755;28;20244;-84
2023/01/08 04:09:55;;;;;;;2.33;0.87;;;8.50;99.90;;;;;;4953680;28;20224;-86
2023/01/08 04:12:23;;;;;;;0.43;0.43;;;8.50;99.90;;;;;;4948432;28;20279;-86
2023/01/08 04:14:49;;;;;;;0.50;0.50;;;8.50;99.90;;;;;;4948062;28;20221;-84
2023/01/08 04:17:14;;;;;;;1.73;1.63;;;8.50;99.90;;;;;;4957391;28;20340;-85
2023/01/08 04:19:40;;;;;;;0.40;0.40;;;8.60;99.90;;;;;;4954689;28;20320;-87
2023/01/08 04:22:08;;;;;;;1.97;1.17;;;8.60;99.90;;;;;;4947841;28;20225;-83
2023/01/08 04:24:33;;;;;;;0.30;0.30;;;8.60;99.90;;;;;;4955850;28;20251;-87
2023/01/08 04:26:59;;;;;;;0.50;0.50;;;8.60;99.90;;;;;;4957466;28;20677;-85
2023/01/08 04:29:25;;;;;;;0.30;0.30;;;8.60;99.90;;;;;;4947514;28;20200;-84
2023/01/08 04:31:51;;;;;;;0.67;0.57;;;8.60;99.90;;;;;;4956726;28;20241;-87
2023/01/08 04:34:16;;;;;;;12.40;1.50;;;8.60;99.90;;;;;;4946609;28;20709;-87
2023/01/08 04:36:42;;;;;;;4.37;1.27;;;8.60;99.90;;;;;;4948733;28;20232;-86
2023/01/08 04:39:10;;;;;;;2.00;1.60;;;8.60;99.90;;;;;;4959641;28;20230;-83
2023/01/08 04:41:36;;;;;;;0.37;0.37;;;8.60;99.90;;;;;;4954721;28;20655;-86
2023/01/08 04:44:02;;;;;;;0.87;0.80;;;8.60;99.90;;;;;;4947729;28;20331;-86
2023/01/08 04:46:28;;;;;;;2.37;1.50;;;8.60;99.90;;;;;;4953502;28;20671;-83
2023/01/08 04:48:53;;;;;;;0.60;0.60;;;8.60;99.90;;;;;;4953178;28;20217;-83
2023/01/08 04:51:20;;;;;;;0.80;0.47;;;8.70;99.90;;;;;;4948813;28;20240;-89
2023/01/08 04:53:46;;;;;;;5.83;1.03;;;8.70;99.90;;;;;;4947688;28;20751;-84
2023/01/08 04:56:13;;;;;;;1.00;1.00;;;8.70;99.90;;;;;;4946739;28;20593;-84
2023/01/08 04:58:39;;;;;;;0.60;0.60;;;8.70;99.90;;;;;;4947416;28;20696;-84
2023/01/08 05:01:15;;;;;;;2.30;1.17;;;8.70;99.90;;;;;;4952142;28;20223;-87
2023/01/08 05:03:40;;;;;;;8.73;2.30;;;8.70;99.90;;;;;;4971355;28;20224;-93
2023/01/08 05:06:07;;;;;;;1.33;1.07;;;8.70;99.90;;;;;;4953067;28;20268;-84
2023/01/08 05:08:32;;;;;;;1.30;0.90;;;8.70;99.90;;;;;;4956309;28;20197;-89
2023/01/08 05:10:59;;;;;;;0.67;0.67;;;8.70;99.90;;;;;;4954451;28;20205;-85
2023/01/08 05:13:25;;;;;;;1.53;0.63;;;8.70;99.90;;;;;;4954877;28;20307;-84
2023/01/08 05:15:50;;;;;;;0.30;0.30;;;8.70;99.90;;;;;;4953002;28;20323;-85
2023/01/08 05:18:16;;;;;;;0.90;0.90;;;8.70;99.90;;;;;;4949761;28;20697;-90
2023/01/08 05:20:42;;;;;;;2.10;1.20;;;8.70;99.90;;;;;;4954092;28;20220;-88
2023/01/08 05:23:07;;;;;;;0.50;0.50;;;8.70;99.90;;;;;;4956962;28;20197;-86
2023/01/08 05:25:34;;;;;;;0.87;0.60;;;8.60;99.90;;;;;;4954928;28;20259;-84
2023/01/08 05:27:59;;;;;;;2.60;0.70;;;8.60;99.90;;;;;;4953832;28;20221;-89
2023/01/08 05:30:25;;;;;;;0.50;0.50;;;8.60;99.90;;;;;;4950638;28;20233;-85
2023/01/08 05:32:51;;;;;;;0.83;0.83;;;8.50;99.90;;;;;;4953640;28;20744;-84
2023/01/08 05:35:17;;;;;;;0.83;0.60;;;8.50;99.90;;;;;;4958034;28;20224;-87
2023/01/08 05:37:43;;;;;;;2.30;0.50;;;8.50;99.90;;;;;;4954067;28;20780;-87
2023/01/08 05:40:09;;;;;;;1.27;0.60;;;8.50;99.90;;;;;;4944893;28;20235;-88
2023/01/08 05:42:36;;;;;;;1.07;0.60;;;8.40;99.90;;;;;;4938449;28;20209;-85
2023/01/08 05:45:06;;;;;;;3.17;0.87;;;8.40;99.90;;;;;;4951253;28;20228;-86
2023/01/08 05:47:33;;;;;;;1.13;0.63;;;8.40;99.90;;;;;;4952697;28;20177;-91
2023/01/08 05:49:59;;;;;;;1.37;1.13;;;8.30;99.90;;;;;;4955810;28;20221;-83
2023/01/08 05:52:25;;;;;;;0.93;0.93;;;8.30;99.90;;;;;;4954524;28;20319;-83
2023/01/08 05:54:51;;;;;;;0.20;0.20;;;8.30;99.90;;;;;;4951888;28;20772;-83
2023/01/08 05:57:17;;;;;;;0.40;0.40;;;8.20;99.90;;;;;;4938379;28;20236;-87
2023/01/08 05:59:42;;;;;;;0.47;0.47;;;8.20;99.90;;;;;;4954402;28;20193;-84
2023/01/08 06:02:08;;;;;;;1.73;0.53;;;8.20;99.90;;;;;;4945846;28;20235;-83
2023/01/08 06:04:34;;;;;;;3.40;0.57;;;8.10;99.90;;;;;;4956258;28;20224;-84
2023/01/08 06:07:00;;;;;;;0.33;0.33;;;8.10;99.90;;;;;;4954973;28;20216;-86
2023/01/08 06:09:25;;;;;;;0.40;0.40;;;8.10;99.90;;;;;;4944262;28;20271;-89
2023/01/08 06:11:51;;;;;;;0.50;0.50;;;8.10;99.90;;;;;;4945791;28;20241;-84
2023/01/08 06:14:17;;;;;;;0.57;0.50;;;8.10;99.90;;;;;;4953887;28;20572;-84
2023/01/08 06:16:43;;;;;;;0.60;0.60;;;8.00;99.90;;;;;;4956860;28;20606;-84
2023/01/08 06:19:10;;;;;;;0.50;0.50;;;8.00;99.90;;;;;;4951905;28;20232;-84
2023/01/08 06:21:36;;;;;;;2.47;0.40;;;8.10;99.90;;;;;;4954314;28;20336;-90
2023/01/08 06:24:02;;;;;;;0.50;0.50;;;8.00;99.90;;;;;;4952721;28;20295;-83
2023/01/08 06:26:27;;;;;;;0.23;0.23;;;8.00;99.90;;;;;;4954346;28;20205;-87
2023/01/08 06:28:53;;;;;;;1.03;1.03;;;8.00;99.90;;;;;;4955053;28;20221;-85
2023/01/08 06:31:19;;;;;;;0.70;0.70;;;8.00;99.90;;;;;;4946728;28;20224;-83
2023/01/08 06:33:44;;;;;;;2.00;1.43;;;7.90;99.90;;;;;;4954842;28;20743;-85
2023/01/08 06:36:10;;;;;;;0.57;0.57;;;7.90;99.90;;;;;;4951868;28;20687;-85
2023/01/08 06:38:36;;;;;;;1.70;0.40;;;7.90;99.90;;;;;;4936040;28;20195;-85
2023/01/08 06:41:04;;;;;;;0.30;0.30;;;7.90;99.90;;;;;;4970076;28;20213;-84
2023/01/08 06:43:29;;;;;;;6.87;1.23;;;7.90;99.90;;;;;;4945749;28;20217;-85
2023/01/08 06:45:57;;;;;;;0.60;0.50;;;7.90;99.90;;;;;;4956118;28;20256;-85
2023/01/08 06:48:23;;;;;;;0.50;0.50;;;7.90;99.90;;;;;;4952390;28;20221;-84
2023/01/08 06:50:49;;;;;;;0.70;0.70;;;7.90;99.90;;;;;;4950547;28;20185;-84
2023/01/08 06:53:15;;;;;;;0.60;0.60;;;7.80;99.90;;;;;;4945130;28;20284;-85
2023/01/08 06:55:41;;;;;;;0.37;0.37;;;7.80;99.90;;;;;;4946082;28;20319;-85
2023/01/08 06:58:11;;;;;;;0.20;0.20;;;7.80;99.90;;;;;;4954195;28;20287;-86
2023/01/08 07:00:37;;;;;;;0.20;0.20;;;7.80;99.90;;;;;;4960762;28;20279;-82
2023/01/08 07:03:03;;;;;;;0.40;0.40;;;7.80;99.90;;;;;;4972426;28;20221;-83
2023/01/08 07:05:29;;;;;;;3.27;1.63;;;7.80;99.90;;;;;;4958769;28;20201;-84
2023/01/08 07:07:55;;;;;;;0.40;0.40;;;7.70;99.90;;;;;;4959218;28;20228;-90
2023/01/08 07:10:21;;;;;;;0.37;0.37;;;7.70;99.90;;;;;;4957149;28;20252;-85
2023/01/08 07:12:47;;;;;;;0.53;0.53;;;7.70;99.90;;;;;;4958378;28;20884;-85
2023/01/08 07:15:14;;;;;;;0.53;0.53;;;7.70;99.90;;;;;;4954592;28;20236;-85
2023/01/08 07:17:39;;;;;;;0.60;0.30;;;7.60;99.90;;;;;;4954869;28;20178;-87
2023/01/08 07:20:06;;;;;;;2.73;1.00;;;7.60;99.90;;;;;;4950071;28;20256;-90
2023/01/08 07:22:32;;;;;;;0.47;0.47;;;7.60;99.90;;;;;;4957445;28;20225;-88
2023/01/08 07:24:57;;;;;;;2.83;0.83;;;7.60;99.90;;;;;;4958096;28;20232;-84
2023/01/08 07:27:23;;;;;;;0.30;0.30;;;7.60;99.90;;;;;;4956721;28;20229;-85
2023/01/08 07:29:49;;;;;;;0.30;0.30;;;7.50;99.90;;;;;;4957968;28;20193;-91
2023/01/08 07:32:14;;;;;;;0.53;0.53;;;7.60;99.90;;;;;;4960873;28;20236;-89
2023/01/08 07:34:40;;;;;;;2.57;1.07;;;7.50;99.90;;;;;;4960147;28;20236;-87
2023/01/08 07:37:06;;;;;;;0.40;0.40;;;7.60;99.90;;;;;;4948443;28;20229;-85
2023/01/08 07:39:32;;;;;;;0.30;0.30;;;7.50;99.90;;;;;;4956696;28;20976;-84
2023/01/08 07:41:58;;;;;;;1.47;1.37;;;7.60;99.90;;;;;;4942738;28;20240;-90
2023/01/08 07:44:24;;;;;;;1.37;1.27;;;7.60;99.90;;;;;;4947559;28;20240;-88
2023/01/08 07:46:50;;;;;;;0.90;0.90;;;7.60;99.90;;;;;;4947339;28;20275;-83
2023/01/08 07:49:15;;;;;;;0.83;0.83;;;7.60;99.90;;;;;;4973977;28;20711;-82
2023/01/08 07:51:41;;;;;;;0.50;0.50;;;7.60;99.90;;;;;;4947575;28;20224;-82
2023/01/08 07:54:10;;;;;;;0.70;0.70;;;7.60;99.90;;;;;;4958119;28;20225;-84
2023/01/08 07:56:36;;;;;;;3.60;0.70;;;7.60;99.90;;;;;;4944669;28;20681;-85
2023/01/08 07:59:01;;;;;;;2.27;2.17;;;7.60;99.90;;;;;;4957986;28;20221;-85
2023/01/08 08:01:27;;;;;;;1.00;1.00;;;7.60;99.90;;;;;;4948721;28;20240;-90
2023/01/08 08:03:53;;;;;;;1.53;1.43;;;7.60;99.90;;;;;;4956638;28;20681;-85
2023/01/08 08:06:19;;;;;;;1.90;1.23;;;7.60;99.90;;;;;;4946859;28;20710;-86
2023/01/08 08:08:44;;;;;;;13.33;4.23;;;7.60;99.90;;;;;;4958581;28;20228;-84
2023/01/08 08:11:10;;;;;;;4.33;3.80;;;7.50;99.90;;;;;;4961979;28;21019;-84
2023/01/08 08:13:41;;;;;;;0.90;0.90;;;7.60;99.90;;;;;;4968266;28;20686;-84
2023/01/08 08:16:07;;;;;;;18.50;0.93;;;7.60;99.90;;;;;;4958740;28;20240;-86
2023/01/08 08:18:32;;;;;;;4.70;3.37;;;7.60;99.90;;;;;;4956229;28;20702;-91
2023/01/08 08:20:58;;;;;;;1.37;1.27;;;7.70;99.90;;;;;;4948415;28;20752;-86
2023/01/08 08:23:24;;;;;;;4.37;2.43;;;7.80;99.90;;;;;;4949868;28;20189;-89
2023/01/08 08:25:50;;;;;;;1.80;1.40;;;7.80;99.90;;;;;;4959540;28;20314;-85
2023/01/08 08:28:16;;;;;;;1.83;1.50;;;7.90;99.90;;;;;;4948738;28;20213;-86
2023/01/08 08:30:42;;;;;;;4.90;2.40;;;8.00;99.90;;;;;;4954230;28;20280;-88
2023/01/08 08:33:08;;;;;;;2.70;1.90;;;8.00;99.90;;;;;;4951662;28;20249;-83
2023/01/08 08:35:35;;;;;;;1.10;1.10;;;8.00;99.90;;;;;;4966025;28;20658;-87
2023/01/08 08:38:01;;;;;;;1.70;1.60;;;8.10;99.90;;;;;;4965096;28;20192;-84
2023/01/08 08:40:27;;;;;;;1.17;1.07;;;8.10;99.90;;;;;;4961648;28;20228;-83
2023/01/08 08:43:01;;;;;;;1.20;1.20;;;8.20;99.90;;;;;;4962055;28;20682;-84
2023/01/08 08:45:28;;;;;;;0.90;0.90;;;8.20;99.90;;;;;;4963825;28;20239;-84
2023/01/08 08:47:54;;;;;;;1.90;0.97;;;8.20;99.90;;;;;;4960780;28;20263;-85
2023/01/08 08:50:21;;;;;;;2.53;1.13;;;8.30;99.90;;;;;;4961385;28;20177;-86
2023/01/08 08:52:47;;;;;;;0.50;0.50;;;8.30;99.90;;;;;;4959700;28;20227;-86
2023/01/08 08:55:16;;;;;;;0.90;0.90;;;8.30;99.90;;;;;;4957621;28;20346;-93
2023/01/08 08:57:45;;;;;;;3.43;0.80;;;8.40;99.90;;;;;;4956941;28;20225;-88
2023/01/08 09:00:15;;;;;;;1.07;1.07;;;8.40;99.90;;;;;;4955791;28;20221;-83
2023/01/08 09:02:41;;;;;;;6.17;0.53;;;8.40;99.90;;;;;;4956184;28;20190;-83
2023/01/08 09:05:07;;;;;;;0.73;0.73;;;8.50;99.90;;;;;;4949539;28;20193;-83
2023/01/08 09:07:33;;;;;;;1.03;1.03;;;8.50;99.90;;;;;;4940738;28;20227;-86
2023/01/08 09:09:59;;;;;;;1.93;1.30;;;8.50;99.90;;;;;;4961104;28;20216;-86
2023/01/08 09:12:24;;;;;;;3.67;2.07;;;8.60;99.90;;;;;;4959650;28;20221;-86
2023/01/08 09:14:53;;;;;;;2.57;1.10;;;8.60;99.90;;;;;;4950132;28;20225;-86
2023/01/08 09:17:20;;;;;;;2.13;2.03;;;8.60;99.90;;;;;;4947888;28;20288;-90
2023/01/08 09:19:46;;;;;;;3.70;2.13;;;8.60;99.90;;;;;;4957174;28;20223;-89
2023/01/08 09:22:12;;;;;;;2.60;1.17;;;8.60;99.90;;;;;;4963551;28;20228;-85
2023/01/08 09:24:38;;;;;;;2.60;2.00;;;8.70;99.90;;;;;;4950833;28;20232;-84
2023/01/08 09:27:03;;;;;;;1.43;0.93;;;8.70;99.90;;;;;;4950426;28;20220;-82
2023/01/08 09:29:29;;;;;;;1.93;1.50;;;8.70;99.90;;;;;;4954768;28;20693;-89
2023/01/08 09:31:56;;;;;;;0.90;0.80;;;8.70;99.90;;;;;;4958304;28;20236;-85
2023/01/08 09:34:22;;;;;;;0.83;0.77;;;8.70;99.90;;;;;;4959896;28;20242;-86
2023/01/08 09:36:48;;;;;;;0.80;0.80;;;8.80;99.90;;;;;;4952125;28;20243;-85
2023/01/08 09:39:13;;;;;;;0.43;0.43;;;8.80;99.90;;;;;;4964026;28;20229;-85
2023/01/08 09:41:44;;;;;;;1.23;1.23;;;8.80;99.90;;;;;;4971994;28;20196;-86
2023/01/08 09:44:19;;;;;;;1.90;1.80;;;8.80;99.90;;;;;;4964071;28;20181;-85
2023/01/08 09:46:49;;;;;;;0.40;0.40;;;8.80;99.90;;;;;;4957877;28;20220;-85
2023/01/08 09:49:24;;;;;;;2.73;1.60;;;8.80;99.90;;;;;;4965900;28;20324;-86
2023/01/08 09:51:51;;;;;;;0.80;0.80;;;8.90;99.90;;;;;;4960695;28;20219;-85
2023/01/08 09:54:17;;;;;;;4.17;2.63;;;8.90;99.90;;;;;;4956541;28;20217;-86
2023/01/08 09:56:43;;;;;;;11.97;7.83;;;9.00;99.90;;;;;;4958714;28;20621;-88
2023/01/08 09:59:15;;;;;;;0.63;0.63;;;9.00;99.90;;;;;;4955508;28;20200;-89
2023/01/08 10:01:43;;;;;;;8.47;6.00;;;9.00;99.90;;;;;;4956182;28;20251;-88
2023/01/08 10:04:24;;;;;;;14.37;9.93;;;9.00;99.90;;;;;;4954795;28;20874;-88
2023/01/08 10:06:54;;;;;;;3.03;1.17;;;8.90;99.90;;;;;;4957133;28;20765;-90
2023/01/08 10:09:28;;;;;;;8.07;3.20;;;9.00;99.90;;;;;;4958203;28;20221;-87
2023/01/08 10:11:58;;;;;;;14.37;3.07;;;9.00;99.90;;;;;;4954199;28;20207;-85
2023/01/08 10:14:30;;;;;;;1.83;1.27;;;9.00;99.90;;;;;;4957658;28;20220;-89
2023/01/08 10:20:23;;;;;;;3.07;1.90;;;9.00;99.90;;;;;;4956358;28;20217;-84
2023/01/08 10:22:52;;;;;;;9.17;3.27;;;8.90;99.90;;;;;;4990900;28;20585;-85
2023/01/08 10:29:06;;;;;;;0.70;0.70;;;9.10;99.90;;;;;;4980320;28;20231;-84
2023/01/08 10:31:32;;;;;;;4.53;0.80;;;9.20;99.90;;;;;;4990597;28;20788;-86
2023/01/08 10:34:09;;;;;;;6.70;4.07;;;9.10;99.90;;;;;;4940272;28;20221;-83
2023/01/08 10:36:40;;;;;;;1.77;1.67;;;9.10;99.90;;;;;;4941764;28;20237;-85
2023/01/08 10:39:15;;;;;;;4.10;2.57;;;9.20;99.90;;;;;;4957980;28;20309;-87
2023/01/08 10:41:41;;;;;;;10.23;6.47;;;9.20;99.90;;;;;;4961268;28;20177;-83
2023/01/08 10:44:15;;;;;;;11.37;3.97;;;9.10;99.90;;;;;;4942383;28;20198;-83
2023/01/08 10:46:43;;;;;;;3.90;3.07;;;9.20;99.90;;;;;;4938929;28;20220;-82
2023/01/08 10:49:27;;;;;;;1.43;1.10;;;9.20;99.90;;;;;;4957368;28;20623;-85
2023/01/08 10:51:54;;;;;;;1.37;1.23;;;9.20;99.90;;;;;;4959168;28;20225;-88
2023/01/08 10:54:29;;;;;;;13.23;5.93;;;9.20;99.90;;;;;;4958771;28;20296;-89
2023/01/08 10:56:55;;;;;;;1.90;0.97;;;9.20;99.90;;;;;;4941993;28;20516;-86
2023/01/08 10:59:22;;;;;;;0.90;0.90;;;9.20;99.90;;;;;;4926639;28;20283;-86
2023/01/08 11:01:50;;;;;;;6.43;5.67;;;9.20;99.90;;;;;;4956161;28;20240;-84
2023/01/08 11:04:32;;;;;;;1.83;1.70;;;9.20;99.90;;;;;;4932227;28;20213;-87
2023/01/08 11:07:04;;;;;;;2.40;1.47;;;9.20;99.90;;;;;;4941861;28;20213;-81
2023/01/08 11:09:46;;;;;;;5.23;1.93;;;9.20;99.90;;;;;;4955371;28;20216;-84
2023/01/08 11:12:34;;;;;;;0.63;0.63;;;9.20;99.90;;;;;;4939094;28;20220;-90
2023/01/08 11:15:01;;;;;;;2.10;1.23;;;9.20;99.90;;;;;;4939625;28;20296;-91
2023/01/08 11:17:27;;;;;;;7.20;1.40;;;9.20;99.90;;;;;;4937932;28;20292;-84
2023/01/08 11:19:53;;;;;;;6.07;3.70;;;9.20;99.90;;;;;;4931976;28;20257;-84
2023/01/08 11:22:25;;;;;;;1.70;1.10;;;9.20;99.90;;;;;;4930366;28;20213;-85
2023/01/08 11:24:52;;;;;;;1.23;1.07;;;9.20;99.90;;;;;;4939815;28;20572;-89
2023/01/08 11:27:30;;;;;;;1.57;1.30;;;9.30;99.90;;;;;;4937539;28;20224;-85
2023/01/08 11:30:05;;;;;;;2.33;0.67;;;9.20;99.90;;;;;;4954246;28;20281;-84
2023/01/08 11:33:05;;;;;;;0.40;0.40;;;9.30;99.90;;;;;;4973904;28;20224;-85
2023/01/08 11:35:43;;;;;;;1.30;0.97;;;9.30;99.90;;;;;;4958061;28;20775;-83
2023/01/08 11:38:11;;;;;;;2.30;0.63;;;9.40;99.90;;;;;;4956465;28;20267;-84
2023/01/08 11:41:08;;;;;;;5.87;1.23;;;9.40;99.90;;;;;;4955295;28;20331;-86
2023/01/08 11:43:48;;;;;;;0.77;0.37;;;9.40;99.90;;;;;;4938791;28;21005;-82
2023/01/08 11:46:38;;;;;;;0.53;0.53;;;9.40;99.90;;;;;;4958712;28;20244;-83
2023/01/08 11:49:26;;;;;;;0.97;0.50;;;9.30;99.90;;;;;;4955407;28;20239;-87
2023/01/08 11:52:07;;;;;;;0.50;0.50;;;9.30;99.90;;;;;;4953992;28;20629;-85
2023/01/08 11:54:48;;;;;;;0.53;0.53;;;9.30;99.90;;;;;;4938256;28;20242;-87
2023/01/08 11:57:35;;;;;;;0.43;0.43;;;9.40;99.90;;;;;;4936718;28;20225;-84
2023/01/08 12:00:36;;;;;;;2.30;0.70;;;9.30;99.90;;;;;;4937364;28;20228;-83
2023/01/08 12:03:24;;;;;;;1.13;0.80;;;9.40;99.90;;;;;;4940211;28;20217;-84
2023/01/08 12:05:58;;;;;;;0.40;0.40;;;9.40;99.90;;;;;;4939229;28;20736;-85
2023/01/08 12:08:42;;;;;;;0.60;0.60;;;9.50;99.90;;;;;;4970714;28;20536;-88
2023/01/08 12:11:31;;;;;;;10.53;0.70;;;9.50;99.90;;;;;;4934178;28;20218;-86
2023/01/08 12:14:26;;;;;;;0.73;0.73;;;9.50;99.90;;;;;;4956958;28;20923;-91
2023/01/08 12:16:52;;;;;;;1.27;1.17;;;9.50;99.90;;;;;;4950771;28;20292;-82
2023/01/08 12:19:44;;;;;;;4.13;0.73;;;9.50;99.90;;;;;;4956614;28;20228;-83
2023/01/08 12:22:42;;;;;;;1.47;1.03;;;9.60;99.90;;;;;;4938584;28;20217;-83
2023/01/08 12:25:22;;;;;;;1.03;0.93;;;9.50;99.90;;;;;;4953199;28;20308;-83
2023/01/08 12:28:12;;;;;;;0.97;0.97;;;9.50;99.90;;;;;;4957086;28;20686;-84
2023/01/08 12:30:44;;;;;;;1.73;1.63;;;9.40;99.90;;;;;;4956546;28;21059;-83
2023/01/08 12:33:38;;;;;;;0.60;0.60;;;9.40;99.90;;;;;;4956891;28;20655;-80
2023/01/08 12:36:09;;;;;;;3.90;0.70;;;9.50;99.90;;;;;;4940579;28;20327;-83
2023/01/08 12:38:39;;;;;;;1.17;0.67;;;9.50;99.90;;;;;;4936536;28;20199;-85
2023/01/08 12:41:11;;;;;;;4.97;1.10;;;9.40;99.90;;;;;;4956293;28;20186;-87
2023/01/08 12:43:58;;;;;;;0.93;0.73;;;9.40;99.90;;;;;;4960545;28;20225;-86
2023/01/08 12:46:36;;;;;;;2.77;1.53;;;9.40;99.90;;;;;;4953845;28;20992;-86
2023/01/08 12:49:05;;;;;;;1.87;1.30;;;9.50;99.90;;;;;;4957065;28;20704;-87
2023/01/08 12:51:48;;;;;;;0.70;0.70;;;9.50;99.90;;;;;;4956419;28;20690;-86
2023/01/08 12:54:49;;;;;;;8.83;1.40;;;9.60;99.90;;;;;;4959581;28;20253;-85
2023/01/08 12:57:40;;;;;;;2.80;1.17;;;9.60;99.90;;;;;;4937168;28;20221;-87
2023/01/08 13:00:29;;;;;;;2.93;1.10;;;9.60;99.90;;;;;;4955356;28;20216;-87
2023/01/08 13:03:04;;;;;;;6.37;1.00;;;9.70;99.90;;;;;;4956264;28;20265;-88
2023/01/08 13:05:35;;;;;;;8.60;0.93;;;9.80;99.90;;;;;;4941981;28;20200;-89
2023/01/08 13:08:27;;;;;;;1.50;0.93;;;9.80;99.90;;;;;;4939007;28;20216;-89
2023/01/08 13:10:54;;;;;;;0.67;0.67;;;9.80;99.90;;;;;;4972839;28;20213;-88
2023/01/08 13:13:43;;;;;;;1.23;0.80;;;9.90;99.90;;;;;;4942408;28;20224;-88
2023/01/08 13:16:19;;;;;;;1.50;1.40;;;9.90;99.90;;;;;;4955495;28;20248;-88
2023/01/08 13:18:59;;;;;;;1.73;1.63;;;9.80;99.90;;;;;;4939963;28;20248;-88
2023/01/08 13:21:42;;;;;;;1.10;1.00;;;9.50;99.90;;;;;;4939297;28;20685;-87
2023/01/08 13:24:31;;;;;;;1.43;0.80;;;9.40;99.90;;;;;;4955729;28;20229;-88